DYess Air Force Base Abilene US
ICAO: KDYS
IATA: DYS
Category: Large
Scheduled Services: No

Elevation: 1789 ft
TransAlt. 18000 ft.

Airport Communications:
ABILENE APP/DEP:125
ATIS:38.57
GND:118.35
PMSV METRO:38.325
ACC COMMAND POST:31.1
AMCC:34.94
PTD:139.3
TWR:133

KDYS Zoom In..

Runways:

(A) RW 16 length 13500 ft width 300 ft
ILS 109.90 / hdg 161

(B) RW 34 length 13500 ft width 300 ft
ILS 109.90 / hdg 341

Location; KDYS
Day. 07 / Time. 14.56 Zulu
* Altimeter: 30.04
* Temperature: 29° c. 84.2°f.
* Wind from: 180° Speed 17 kn with Gusts up to 23 kn.
Dewpoint: 19° c.
Visibility: 10 Statute Miles.
Clouds: Clear (automated report).

KDYS 071456Z AUTO 18017G23KT 10SM CLR 29/19 A3004 RMK AO2 SLP120 T02910191 52013 $

Going to: --> -->


Wind From 180°
Speed 17 kn.

 
 
jpsmedia worldairports.se 2020   terms of use